createdAt,value
2019-04-20T00:00:08.182Z,1023.40
2019-04-20T00:01:05.464Z,1023.38
2019-04-20T00:02:13.657Z,1023.37
2019-04-20T00:03:05.680Z,1023.38
2019-04-20T00:04:05.448Z,1023.38
2019-04-20T00:05:05.336Z,1023.37
2019-04-20T00:06:05.010Z,1023.36
2019-04-20T00:07:05.995Z,1023.32
2019-04-20T00:08:08.898Z,1023.35
2019-04-20T00:09:10.545Z,1023.31
2019-04-20T00:10:10.944Z,1023.32
2019-04-20T00:11:11.738Z,1023.28
2019-04-20T00:12:12.720Z,1023.29
2019-04-20T00:13:17.615Z,1023.24
2019-04-20T00:14:12.037Z,1023.28
2019-04-20T00:15:04.931Z,1023.24
2019-04-20T00:16:06.097Z,1023.26
2019-04-20T00:17:05.170Z,1023.24
2019-04-20T00:18:06.654Z,1023.25
2019-04-20T00:19:05.852Z,1023.24
2019-04-20T00:20:11.655Z,1023.27
2019-04-20T00:21:08.621Z,1023.21
2019-04-20T00:22:08.048Z,1023.26
2019-04-20T00:23:05.823Z,1023.27
2019-04-20T00:24:12.939Z,1023.23
2019-04-20T00:25:10.526Z,1023.25
2019-04-20T00:26:14.185Z,1023.22
2019-04-20T00:27:28.441Z,1023.22
2019-04-20T00:28:20.804Z,1023.23
2019-04-20T00:29:21.339Z,1023.23
2019-04-20T00:30:28.544Z,1023.21
2019-04-20T00:31:19.063Z,1023.18
2019-04-20T00:32:14.584Z,1023.16
2019-04-20T00:33:14.742Z,1023.19
2019-04-20T00:34:13.087Z,1023.18
2019-04-20T00:35:04.211Z,1023.19
2019-04-20T00:36:05.388Z,1023.20
2019-04-20T00:37:05.307Z,1023.24
2019-04-20T00:38:04.105Z,1023.20
2019-04-20T00:39:07.608Z,1023.24
2019-04-20T00:40:04.024Z,1023.21
2019-04-20T00:41:07.593Z,1023.21
2019-04-20T00:42:08.018Z,1023.20
2019-04-20T00:43:04.679Z,1023.20
2019-04-20T00:44:12.246Z,1023.14
2019-04-20T00:45:12.014Z,1023.20
2019-04-20T00:46:08.277Z,1023.18
2019-04-20T00:47:17.870Z,1023.18
2019-04-20T00:48:12.001Z,1023.22
2019-04-20T00:49:20.657Z,1023.21
2019-04-20T00:50:19.562Z,1023.22
2019-04-20T00:51:25.000Z,1023.24
2019-04-20T00:53:14.823Z,1023.21
2019-04-20T00:54:04.018Z,1023.22
2019-04-20T00:55:04.178Z,1023.21
2019-04-20T00:56:03.649Z,1023.25
2019-04-20T00:57:13.315Z,1023.18
2019-04-20T00:58:11.735Z,1023.21
2019-04-20T00:59:16.821Z,1023.20
2019-04-20T01:00:24.385Z,1023.21
2019-04-20T01:01:20.698Z,1023.23
2019-04-20T01:02:19.225Z,1023.21
2019-04-20T01:03:21.857Z,1023.21
2019-04-20T01:04:19.840Z,1023.22
2019-04-20T01:05:21.403Z,1023.22
2019-04-20T01:06:23.161Z,1023.20
2019-04-20T01:07:15.262Z,1023.23
2019-04-20T01:08:06.405Z,1023.25
2019-04-20T01:09:03.439Z,1023.23
2019-04-20T01:10:04.703Z,1023.21
2019-04-20T01:11:04.171Z,1023.20
2019-04-20T01:12:11.727Z,1023.23
2019-04-20T01:13:08.660Z,1023.18
2019-04-20T01:14:07.919Z,1023.22
2019-04-20T01:15:07.406Z,1023.23
2019-04-20T01:16:08.712Z,1023.22
2019-04-20T01:17:11.708Z,1023.21
2019-04-20T01:18:02.914Z,1023.21
2019-04-20T01:19:02.897Z,1023.18
2019-04-20T01:20:02.866Z,1023.19
2019-04-20T01:21:07.357Z,1023.20
2019-04-20T01:22:10.241Z,1023.16
2019-04-20T01:23:07.456Z,1023.14
2019-04-20T01:24:06.328Z,1023.17
2019-04-20T01:25:09.850Z,1023.14
2019-04-20T01:26:07.507Z,1023.17
2019-04-20T01:27:05.620Z,1023.19
2019-04-20T01:28:17.934Z,1023.22
2019-04-20T01:29:15.896Z,1023.21
2019-04-20T01:30:10.587Z,1023.23
2019-04-20T01:31:17.444Z,1023.25
2019-04-20T01:32:15.627Z,1023.27
2019-04-20T01:33:17.573Z,1023.28
2019-04-20T01:34:14.649Z,1023.23
2019-04-20T01:35:14.723Z,1023.23
2019-04-20T01:36:19.518Z,1023.25
2019-04-20T01:37:18.154Z,1023.23
2019-04-20T01:38:22.487Z,1023.22
2019-04-20T01:39:13.796Z,1023.25
2019-04-20T01:40:04.538Z,1023.24
2019-04-20T01:41:03.355Z,1023.26
2019-04-20T01:42:02.419Z,1023.26
2019-04-20T01:43:03.589Z,1023.28
2019-04-20T01:44:02.638Z,1023.26
2019-04-20T01:45:05.949Z,1023.31
2019-04-20T01:46:09.304Z,1023.33
2019-04-20T01:47:06.242Z,1023.31
2019-04-20T01:48:03.480Z,1023.34
2019-04-20T01:49:09.177Z,1023.37
2019-04-20T01:50:08.532Z,1023.37
2019-04-20T01:51:07.256Z,1023.37
2019-04-20T01:52:11.023Z,1023.38
2019-04-20T01:53:14.927Z,1023.39
2019-04-20T01:54:17.504Z,1023.34
2019-04-20T01:55:18.370Z,1023.35
2019-04-20T01:56:19.029Z,1023.36
2019-04-20T01:57:10.264Z,1023.38
2019-04-20T01:58:17.598Z,1023.38
2019-04-20T01:59:16.450Z,1023.35
2019-04-20T02:00:09.262Z,1023.36
2019-04-20T02:01:09.707Z,1023.34
2019-04-20T02:02:07.825Z,1023.39
2019-04-20T02:03:04.803Z,1023.40
2019-04-20T02:04:03.230Z,1023.38
2019-04-20T02:05:10.225Z,1023.42
2019-04-20T02:06:06.142Z,1023.43
2019-04-20T02:07:03.847Z,1023.42
2019-04-20T02:08:01.930Z,1023.40
2019-04-20T02:09:06.472Z,1023.42
2019-04-20T02:10:06.184Z,1023.44
2019-04-20T02:11:04.336Z,1023.40
2019-04-20T02:12:08.401Z,1023.42
2019-04-20T02:13:04.391Z,1023.46
2019-04-20T02:14:05.179Z,1023.43
2019-04-20T02:15:04.763Z,1023.51
2019-04-20T02:16:11.459Z,1023.51
2019-04-20T02:17:09.602Z,1023.52
2019-04-20T02:18:16.231Z,1023.52
2019-04-20T02:19:13.771Z,1023.53
2019-04-20T02:20:25.978Z,1023.52
2019-04-20T02:21:19.655Z,1023.54
2019-04-20T02:22:13.571Z,1023.54
2019-04-20T02:23:16.255Z,1023.50
2019-04-20T02:24:04.682Z,1023.51
2019-04-20T02:25:01.723Z,1023.53
2019-04-20T02:26:00.917Z,1023.51
2019-04-20T02:27:02.001Z,1023.56
2019-04-20T02:28:18.939Z,1023.56
2019-04-20T02:29:24.529Z,1023.57
2019-04-20T02:30:30.031Z,1023.54
2019-04-20T02:32:01.108Z,1023.51
2019-04-20T02:32:47.290Z,1023.58
2019-04-20T02:33:43.041Z,1023.56
2019-04-20T02:34:39.396Z,1023.56
2019-04-20T02:35:34.411Z,1023.56
2019-04-20T02:36:42.934Z,1023.59
2019-04-20T02:37:42.307Z,1023.61
2019-04-20T02:38:54.224Z,1023.66
2019-04-20T02:39:37.609Z,1023.63
2019-04-20T02:40:38.838Z,1023.62
2019-04-20T02:41:36.112Z,1023.64
2019-04-20T02:42:35.322Z,1023.68
2019-04-20T02:43:48.367Z,1023.71
2019-04-20T02:44:47.725Z,1023.69
2019-04-20T02:46:31.617Z,1023.70
2019-04-20T02:47:40.350Z,1023.68
2019-04-20T02:48:33.729Z,1023.69
2019-04-20T02:49:36.292Z,1023.70
2019-04-20T02:51:39.298Z,1023.66
2019-04-20T02:52:43.533Z,1023.70
2019-04-20T02:54:28.623Z,1023.69
2019-04-20T02:55:37.879Z,1023.71
2019-04-20T02:58:32.746Z,1023.75
2019-04-20T02:59:53.847Z,1023.72
2019-04-20T03:00:25.115Z,1023.71
2019-04-20T03:01:25.028Z,1023.72
2019-04-20T03:02:18.450Z,1023.74
2019-04-20T03:03:15.846Z,1023.76
2019-04-20T03:04:03.320Z,1023.69
2019-04-20T03:05:13.314Z,1023.73
2019-04-20T03:06:16.549Z,1023.71
2019-04-20T03:07:15.432Z,1023.70
2019-04-20T03:08:17.648Z,1023.72
2019-04-20T03:09:24.330Z,1023.70
2019-04-20T03:10:17.318Z,1023.76
2019-04-20T03:11:22.506Z,1023.73
2019-04-20T03:12:23.590Z,1023.71
2019-04-20T03:13:22.753Z,1023.70
2019-04-20T03:14:18.573Z,1023.72
2019-04-20T03:15:22.160Z,1023.70
2019-04-20T03:16:12.301Z,1023.71
2019-04-20T03:17:25.607Z,1023.69
2019-04-20T03:18:19.727Z,1023.71
2019-04-20T03:19:18.641Z,1023.73
2019-04-20T03:20:23.278Z,1023.73
2019-04-20T03:21:24.775Z,1023.73
2019-04-20T03:22:24.521Z,1023.72
2019-04-20T03:23:29.727Z,1023.69
2019-04-20T03:24:29.540Z,1023.69
2019-04-20T03:25:24.228Z,1023.73
2019-04-20T03:26:25.839Z,1023.72
2019-04-20T03:27:15.798Z,1023.73
2019-04-20T03:28:20.533Z,1023.71
2019-04-20T03:29:13.090Z,1023.69
2019-04-20T03:31:00.506Z,1023.71
2019-04-20T03:33:37.174Z,1023.75
2019-04-20T03:34:48.942Z,1023.74
2019-04-20T03:35:22.376Z,1023.71
2019-04-20T03:36:25.554Z,1023.76
2019-04-20T03:37:26.901Z,1023.76
2019-04-20T03:38:19.782Z,1023.73
2019-04-20T03:39:17.636Z,1023.75
2019-04-20T03:40:16.888Z,1023.74
2019-04-20T03:41:08.195Z,1023.72
2019-04-20T03:41:59.364Z,1023.74
2019-04-20T03:42:59.091Z,1023.73
2019-04-20T03:44:05.622Z,1023.75
2019-04-20T03:45:06.095Z,1023.74
2019-04-20T03:46:05.832Z,1023.74
2019-04-20T03:47:03.452Z,1023.72
2019-04-20T03:48:10.351Z,1023.69
2019-04-20T03:49:14.636Z,1023.69
2019-04-20T03:50:27.318Z,1023.69
2019-04-20T03:51:23.568Z,1023.73
2019-04-20T03:52:20.203Z,1023.70
2019-04-20T03:53:19.134Z,1023.69
2019-04-20T03:54:13.819Z,1023.69
2019-04-20T03:55:16.209Z,1023.69
2019-04-20T03:56:22.801Z,1023.70
2019-04-20T03:57:21.168Z,1023.68
2019-04-20T03:58:18.538Z,1023.66
2019-04-20T03:59:11.697Z,1023.68
2019-04-20T04:00:16.160Z,1023.65
2019-04-20T04:01:19.789Z,1023.66
2019-04-20T04:03:42.493Z,1023.62
2019-04-20T04:04:22.566Z,1023.66
2019-04-20T04:05:16.495Z,1023.63
2019-04-20T04:06:11.836Z,1023.63
2019-04-20T04:07:01.347Z,1023.66
2019-04-20T04:08:09.474Z,1023.68
2019-04-20T04:09:14.748Z,1023.66
2019-04-20T04:10:14.335Z,1023.67
2019-04-20T04:11:16.313Z,1023.64
2019-04-20T04:12:08.901Z,1023.66
2019-04-20T04:12:58.807Z,1023.66
2019-04-20T04:13:58.788Z,1023.66
2019-04-20T04:14:57.903Z,1023.62
2019-04-20T04:16:04.435Z,1023.62
2019-04-20T04:17:00.548Z,1023.63
2019-04-20T04:18:04.538Z,1023.64
2019-04-20T04:19:07.853Z,1023.64
2019-04-20T04:20:05.081Z,1023.66
2019-04-20T04:21:03.654Z,1023.64
2019-04-20T04:22:08.930Z,1023.66
2019-04-20T04:23:14.994Z,1023.71
2019-04-20T04:24:10.669Z,1023.67
2019-04-20T04:25:15.001Z,1023.69
2019-04-20T04:26:16.074Z,1023.73
2019-04-20T04:27:09.233Z,1023.69
2019-04-20T04:28:15.231Z,1023.69
2019-04-20T04:29:22.611Z,1023.74
2019-04-20T04:30:14.222Z,1023.71
2019-04-20T04:31:16.551Z,1023.74
2019-04-20T04:32:23.546Z,1023.76
2019-04-20T04:33:40.019Z,1023.79
2019-04-20T04:34:12.503Z,1023.81
2019-04-20T04:35:09.195Z,1023.83
2019-04-20T04:36:13.837Z,1023.82
2019-04-20T04:37:16.344Z,1023.84
2019-04-20T04:38:12.672Z,1023.84
2019-04-20T04:39:21.219Z,1023.85
2019-04-20T04:40:26.421Z,1023.86
2019-04-20T04:41:20.293Z,1023.89
2019-04-20T04:43:16.056Z,1023.87
2019-04-20T04:44:11.237Z,1023.94
2019-04-20T04:45:03.956Z,1023.90
2019-04-20T04:45:57.426Z,1023.91
2019-04-20T04:47:00.268Z,1023.94
2019-04-20T04:47:57.711Z,1023.90
2019-04-20T04:49:06.901Z,1023.89
2019-04-20T04:50:06.911Z,1023.94
2019-04-20T04:51:03.873Z,1023.92
2019-04-20T04:52:03.900Z,1023.95
2019-04-20T04:53:04.613Z,1023.93
2019-04-20T04:54:05.939Z,1023.96
2019-04-20T04:55:09.548Z,1024.00
2019-04-20T04:56:03.142Z,1024.01
2019-04-20T04:56:56.659Z,1024.00
2019-04-20T04:57:56.328Z,1024.03
2019-04-20T04:58:56.280Z,1024.00
2019-04-20T04:59:57.333Z,1024.02
2019-04-20T05:01:03.929Z,1023.95
2019-04-20T05:01:58.081Z,1024.00
2019-04-20T05:03:00.909Z,1023.98
2019-04-20T05:04:24.804Z,1023.97
2019-04-20T05:05:19.353Z,1024.03
2019-04-20T05:06:17.111Z,1023.96
2019-04-20T05:07:07.914Z,1023.96
2019-04-20T05:08:05.782Z,1023.95
2019-04-20T05:09:00.383Z,1023.98
2019-04-20T05:09:56.975Z,1023.97
2019-04-20T05:10:56.189Z,1023.99
2019-04-20T05:12:02.835Z,1024.00
2019-04-20T05:12:56.657Z,1024.03
2019-04-20T05:14:02.201Z,1024.07
2019-04-20T05:15:06.058Z,1024.06
2019-04-20T05:16:09.738Z,1024.10
2019-04-20T05:17:07.757Z,1024.10
2019-04-20T05:18:13.311Z,1024.09
2019-04-20T05:19:19.371Z,1024.16
2019-04-20T05:20:13.394Z,1024.15
2019-04-20T05:21:15.402Z,1024.10
2019-04-20T05:22:13.547Z,1024.13
2019-04-20T05:23:11.457Z,1024.14
2019-04-20T05:24:13.161Z,1024.16
2019-04-20T05:25:11.945Z,1024.15
2019-04-20T05:26:14.169Z,1024.16
2019-04-20T05:27:17.717Z,1024.18
2019-04-20T05:28:09.426Z,1024.12
2019-04-20T05:29:03.454Z,1024.15
2019-04-20T05:29:55.256Z,1024.11
2019-04-20T05:30:59.809Z,1024.12
2019-04-20T05:32:05.534Z,1024.11
2019-04-20T05:33:03.147Z,1024.16
2019-04-20T05:34:21.848Z,1024.13
2019-04-20T05:35:14.675Z,1024.11
2019-04-20T05:36:12.679Z,1024.10
2019-04-20T05:37:17.599Z,1024.07
2019-04-20T05:38:25.589Z,1024.08
2019-04-20T05:39:21.326Z,1024.12
2019-04-20T05:40:16.217Z,1024.07
2019-04-20T05:41:11.419Z,1024.09
2019-04-20T05:42:22.111Z,1024.07
2019-04-20T05:43:17.681Z,1024.09
2019-04-20T05:44:10.344Z,1024.05
2019-04-20T05:45:11.546Z,1024.07
2019-04-20T05:46:18.540Z,1024.10
2019-04-20T05:47:19.917Z,1024.09
2019-04-20T05:48:11.768Z,1024.10
2019-04-20T05:49:20.683Z,1024.12
2019-04-20T05:50:09.654Z,1024.11
2019-04-20T05:51:21.547Z,1024.05
2019-04-20T05:52:24.115Z,1024.07
2019-04-20T05:53:30.838Z,1024.08
2019-04-20T05:54:17.847Z,1024.08
2019-04-20T05:55:19.039Z,1024.06
2019-04-20T05:56:10.342Z,1024.05
2019-04-20T05:57:22.580Z,1024.08
2019-04-20T05:58:16.695Z,1024.11
2019-04-20T05:59:11.663Z,1024.13
2019-04-20T06:00:17.342Z,1024.08
2019-04-20T06:01:16.093Z,1024.10
2019-04-20T06:02:19.914Z,1024.12
2019-04-20T06:03:11.635Z,1024.11
2019-04-20T06:04:11.606Z,1024.12
2019-04-20T06:05:16.072Z,1024.08
2019-04-20T06:06:20.403Z,1024.11
2019-04-20T06:07:15.578Z,1024.10
2019-04-20T06:08:21.964Z,1024.11
2019-04-20T06:09:16.584Z,1024.10
2019-04-20T06:10:20.826Z,1024.15
2019-04-20T06:11:19.322Z,1024.10
2019-04-20T06:12:20.016Z,1024.16
2019-04-20T06:13:11.424Z,1024.16
2019-04-20T06:14:02.579Z,1024.16
2019-04-20T06:15:08.895Z,1024.18
2019-04-20T06:16:12.861Z,1024.17
2019-04-20T06:17:15.949Z,1024.17
2019-04-20T06:18:12.331Z,1024.17
2019-04-20T06:19:24.240Z,1024.15
2019-04-20T06:20:12.627Z,1024.17
2019-04-20T06:21:27.715Z,1024.22
2019-04-20T06:22:19.234Z,1024.20
2019-04-20T06:23:19.479Z,1024.16
2019-04-20T06:24:18.150Z,1024.16
2019-04-20T06:25:30.815Z,1024.21
2019-04-20T06:26:28.127Z,1024.19
2019-04-20T06:27:14.585Z,1024.22
2019-04-20T06:28:12.715Z,1024.25
2019-04-20T06:29:10.208Z,1024.29
2019-04-20T06:30:12.273Z,1024.25
2019-04-20T06:31:19.127Z,1024.23
2019-04-20T06:32:21.186Z,1024.26
2019-04-20T06:33:26.725Z,1024.26
2019-04-20T06:34:27.973Z,1024.24
2019-04-20T06:35:19.441Z,1024.27
2019-04-20T06:36:20.516Z,1024.24
2019-04-20T06:37:09.988Z,1024.23
2019-04-20T06:38:29.632Z,1024.24
2019-04-20T06:39:17.174Z,1024.24
2019-04-20T06:40:29.354Z,1024.20
2019-04-20T06:41:30.224Z,1024.23
2019-04-20T06:42:23.455Z,1024.21
2019-04-20T06:43:12.600Z,1024.21
2019-04-20T06:44:08.207Z,1024.23
2019-04-20T06:45:22.614Z,1024.21
2019-04-20T06:46:15.226Z,1024.21
2019-04-20T06:48:27.871Z,1024.22
2019-04-20T06:49:22.689Z,1024.20
2019-04-20T06:50:15.006Z,1024.23
2019-04-20T06:51:09.284Z,1024.25
2019-04-20T06:52:20.339Z,1024.20
2019-04-20T06:53:16.313Z,1024.26
2019-04-20T06:54:09.520Z,1024.21
2019-04-20T06:55:14.194Z,1024.21
2019-04-20T06:56:15.625Z,1024.22
2019-04-20T06:57:22.558Z,1024.23
2019-04-20T06:58:31.935Z,1024.23
2019-04-20T06:59:21.584Z,1024.19
2019-04-20T07:00:15.634Z,1024.22
2019-04-20T07:01:11.044Z,1024.25
2019-04-20T07:03:18.493Z,1024.26
2019-04-20T07:04:33.550Z,1024.24
2019-04-20T07:05:28.687Z,1024.28
2019-04-20T07:06:29.368Z,1024.24
2019-04-20T07:07:14.337Z,1024.22
2019-04-20T07:08:29.126Z,1024.21
2019-04-20T07:09:16.941Z,1024.26
2019-04-20T07:11:21.284Z,1024.28
2019-04-20T07:12:12.621Z,1024.25
2019-04-20T07:13:07.275Z,1024.26
2019-04-20T07:14:01.130Z,1024.26
2019-04-20T07:15:08.516Z,1024.25
2019-04-20T07:16:13.728Z,1024.29
2019-04-20T07:17:24.852Z,1024.30
2019-04-20T07:18:15.737Z,1024.26
2019-04-20T07:19:17.198Z,1024.27
2019-04-20T07:20:09.964Z,1024.30
2019-04-20T07:21:15.543Z,1024.29
2019-04-20T07:22:25.318Z,1024.31
2019-04-20T07:23:21.334Z,1024.32
2019-04-20T07:24:17.345Z,1024.34
2019-04-20T07:25:13.982Z,1024.34
2019-04-20T07:26:21.039Z,1024.35
2019-04-20T07:27:12.202Z,1024.36
2019-04-20T07:28:24.143Z,1024.34
2019-04-20T07:29:17.045Z,1024.32
2019-04-20T07:30:13.754Z,1024.35
2019-04-20T07:31:08.671Z,1024.35
2019-04-20T07:32:07.675Z,1024.36
2019-04-20T07:33:16.058Z,1024.37
2019-04-20T07:34:10.463Z,1024.38
2019-04-20T07:35:14.233Z,1024.41
2019-04-20T07:36:19.881Z,1024.39
2019-04-20T07:37:36.996Z,1024.39
2019-04-20T07:38:25.580Z,1024.39
2019-04-20T07:39:14.213Z,1024.39
2019-04-20T07:40:17.559Z,1024.38
2019-04-20T07:41:21.557Z,1024.40
2019-04-20T07:42:19.584Z,1024.39
2019-04-20T07:43:07.685Z,1024.35
2019-04-20T07:44:18.503Z,1024.35
2019-04-20T07:45:16.978Z,1024.39
2019-04-20T07:46:20.878Z,1024.39
2019-04-20T07:47:13.527Z,1024.38
2019-04-20T07:49:15.765Z,1024.38
2019-04-20T07:50:09.049Z,1024.39
2019-04-20T07:51:02.659Z,1024.37
2019-04-20T07:51:52.235Z,1024.39
2019-04-20T07:53:04.357Z,1024.42
2019-04-20T07:54:16.520Z,1024.38
2019-04-20T07:56:12.573Z,1024.37
2019-04-20T07:57:09.781Z,1024.38
2019-04-20T07:58:05.052Z,1024.35
2019-04-20T07:58:57.311Z,1024.35
2019-04-20T08:00:08.459Z,1024.32
2019-04-20T08:01:15.199Z,1024.27
2019-04-20T08:02:17.494Z,1024.34
2019-04-20T08:03:18.462Z,1024.31
2019-04-20T08:04:13.487Z,1024.35
2019-04-20T08:05:06.924Z,1024.33
2019-04-20T08:06:01.092Z,1024.34
2019-04-20T08:06:55.673Z,1024.33
2019-04-20T08:08:08.325Z,1024.33
2019-04-20T08:09:08.690Z,1024.35
2019-04-20T08:09:58.481Z,1024.34
2019-04-20T08:11:07.335Z,1024.32
2019-04-20T08:12:14.275Z,1024.40
2019-04-20T08:13:18.823Z,1024.37
2019-04-20T08:14:11.192Z,1024.33
2019-04-20T08:15:14.807Z,1024.33
2019-04-20T08:16:17.031Z,1024.31
2019-04-20T08:17:31.414Z,1024.35
2019-04-20T08:18:06.514Z,1024.31
2019-04-20T08:19:07.867Z,1024.30
2019-04-20T08:20:09.460Z,1024.33
2019-04-20T08:21:13.381Z,1024.31
2019-04-20T08:22:15.262Z,1024.31
2019-04-20T08:23:12.381Z,1024.32
2019-04-20T08:24:07.335Z,1024.33
2019-04-20T08:25:05.522Z,1024.30
2019-04-20T08:26:03.980Z,1024.29
2019-04-20T08:26:55.916Z,1024.29
2019-04-20T08:27:50.840Z,1024.30
2019-04-20T08:28:56.907Z,1024.29
2019-04-20T08:30:04.680Z,1024.29
2019-04-20T08:31:06.593Z,1024.28
2019-04-20T08:32:15.458Z,1024.28
2019-04-20T08:33:04.147Z,1024.29
2019-04-20T08:34:20.217Z,1024.29
2019-04-20T08:35:14.319Z,1024.25
2019-04-20T08:36:14.767Z,1024.25
2019-04-20T08:37:07.071Z,1024.22
2019-04-20T08:38:47.266Z,1024.23
2019-04-20T08:39:26.523Z,1024.25
2019-04-20T08:40:15.034Z,1024.25
2019-04-20T08:41:07.237Z,1024.24
2019-04-20T08:42:11.582Z,1024.24
2019-04-20T08:43:23.978Z,1024.20
2019-04-20T08:45:19.359Z,1024.26
2019-04-20T08:46:13.553Z,1024.24
2019-04-20T08:47:32.545Z,1024.20
2019-04-20T08:48:15.988Z,1024.22
2019-04-20T08:49:11.334Z,1024.21
2019-04-20T08:51:07.755Z,1024.18
2019-04-20T08:52:24.285Z,1024.21
2019-04-20T08:53:20.223Z,1024.22
2019-04-20T08:54:08.809Z,1024.20
2019-04-20T08:55:04.709Z,1024.18
2019-04-20T08:55:59.992Z,1024.17
2019-04-20T08:56:55.333Z,1024.14
2019-04-20T08:57:49.341Z,1024.13
2019-04-20T08:58:50.616Z,1024.17
2019-04-20T08:59:51.058Z,1024.13
2019-04-20T09:00:55.463Z,1024.11
2019-04-20T09:01:49.050Z,1024.17
2019-04-20T09:02:55.608Z,1024.17
2019-04-20T09:03:58.851Z,1024.15
2019-04-20T09:04:55.208Z,1024.14
2019-04-20T09:05:57.797Z,1024.16
2019-04-20T09:07:00.964Z,1024.14
2019-04-20T09:08:00.110Z,1024.14
2019-04-20T09:09:03.394Z,1024.17
2019-04-20T09:10:11.825Z,1024.12
2019-04-20T09:11:05.873Z,1024.13
2019-04-20T09:12:06.215Z,1024.16
2019-04-20T09:13:03.962Z,1024.16
2019-04-20T09:13:53.587Z,1024.15
2019-04-20T09:14:48.878Z,1024.17
2019-04-20T09:15:49.379Z,1024.12
2019-04-20T09:16:54.317Z,1024.14
2019-04-20T09:17:54.025Z,1024.14
2019-04-20T09:18:56.692Z,1024.14
2019-04-20T09:19:55.715Z,1024.12
2019-04-20T09:20:55.848Z,1024.10
2019-04-20T09:21:54.925Z,1024.09
2019-04-20T09:23:06.994Z,1024.06
2019-04-20T09:24:11.793Z,1024.05
2019-04-20T09:25:25.159Z,1024.07
2019-04-20T09:26:05.986Z,1024.02
2019-04-20T09:27:04.729Z,1024.06
2019-04-20T09:27:56.324Z,1024.05
2019-04-20T09:28:59.015Z,1024.05
2019-04-20T09:30:04.628Z,1024.04
2019-04-20T09:31:01.815Z,1024.04
2019-04-20T09:32:06.766Z,1024.08
2019-04-20T09:33:09.931Z,1024.11
2019-04-20T09:34:06.258Z,1024.13
2019-04-20T09:35:11.387Z,1024.13
2019-04-20T09:36:07.541Z,1024.18
2019-04-20T09:37:04.675Z,1024.18
2019-04-20T09:38:06.848Z,1024.14
2019-04-20T09:39:01.079Z,1024.14
2019-04-20T09:40:09.258Z,1024.12
2019-04-20T09:41:01.332Z,1024.16
2019-04-20T09:42:00.816Z,1024.13
2019-04-20T09:42:47.967Z,1024.09
2019-04-20T09:43:47.940Z,1024.06
2019-04-20T09:44:53.494Z,1024.07
2019-04-20T09:45:50.413Z,1024.07
2019-04-20T09:46:51.525Z,1024.04
2019-04-20T09:47:51.515Z,1024.06
2019-04-20T09:48:54.763Z,1024.08
2019-04-20T09:49:58.032Z,1024.06
2019-04-20T09:51:09.175Z,1024.12
2019-04-20T09:52:03.865Z,1024.06
2019-04-20T09:53:02.528Z,1024.09
2019-04-20T09:53:58.816Z,1024.11
2019-04-20T09:55:03.324Z,1024.09
2019-04-20T09:56:10.309Z,1024.04
2019-04-20T09:57:09.172Z,1024.05
2019-04-20T09:58:02.435Z,1024.03
2019-04-20T09:59:08.248Z,1024.03
2019-04-20T10:01:44.581Z,1023.98
2019-04-20T10:02:39.459Z,1023.95
2019-04-20T10:04:33.369Z,1024.03
2019-04-20T10:05:31.846Z,1023.97
2019-04-20T10:07:37.102Z,1023.96
2019-04-20T10:08:43.585Z,1023.97
2019-04-20T10:09:39.858Z,1023.98
2019-04-20T10:10:40.584Z,1023.99
2019-04-20T10:11:35.157Z,1023.93
2019-04-20T10:12:35.651Z,1023.95
2019-04-20T10:13:34.441Z,1023.97
2019-04-20T10:14:35.158Z,1023.92
2019-04-20T10:15:35.381Z,1023.94
2019-04-20T10:16:35.616Z,1023.94
2019-04-20T10:17:35.762Z,1023.93
2019-04-20T10:18:39.289Z,1023.92
2019-04-20T10:19:37.644Z,1023.91
2019-04-20T10:20:37.881Z,1023.92
2019-04-20T10:21:34.146Z,1023.89
2019-04-20T10:22:34.133Z,1023.88
2019-04-20T10:23:34.531Z,1023.93
2019-04-20T10:24:34.754Z,1023.90
2019-04-20T10:25:34.038Z,1023.85
2019-04-20T10:26:34.449Z,1023.86
2019-04-20T10:27:34.755Z,1023.84
2019-04-20T10:28:33.988Z,1023.82
2019-04-20T10:29:33.943Z,1023.84
2019-04-20T10:30:34.681Z,1023.89
2019-04-20T10:31:35.691Z,1023.82
2019-04-20T10:32:39.348Z,1023.80
2019-04-20T10:33:33.850Z,1023.82
2019-04-20T10:34:34.728Z,1023.82
2019-04-20T10:35:33.874Z,1023.80
2019-04-20T10:36:33.777Z,1023.81
2019-04-20T10:37:33.742Z,1023.80
2019-04-20T10:38:35.890Z,1023.78
2019-04-20T10:39:34.270Z,1023.80
2019-04-20T10:40:50.330Z,1023.81
2019-04-20T10:41:44.336Z,1023.80
2019-04-20T10:42:34.286Z,1023.77
2019-04-20T10:43:33.591Z,1023.79
2019-04-20T10:44:34.728Z,1023.75
2019-04-20T10:45:34.922Z,1023.77
2019-04-20T10:46:33.596Z,1023.72
2019-04-20T10:47:34.842Z,1023.68
2019-04-20T10:48:40.237Z,1023.69
2019-04-20T10:49:33.445Z,1023.73
2019-04-20T10:50:34.509Z,1023.70
2019-04-20T10:51:33.686Z,1023.72
2019-04-20T10:52:33.974Z,1023.69
2019-04-20T10:53:33.376Z,1023.71
2019-04-20T10:54:34.378Z,1023.67
2019-04-20T10:55:33.589Z,1023.69
2019-04-20T10:56:33.719Z,1023.67
2019-04-20T10:57:33.442Z,1023.70
2019-04-20T10:58:33.749Z,1023.70
2019-04-20T10:59:33.964Z,1023.71
2019-04-20T11:00:33.419Z,1023.73
2019-04-20T11:01:33.753Z,1023.72
2019-04-20T11:02:35.011Z,1023.73
2019-04-20T11:03:34.482Z,1023.76
2019-04-20T11:04:33.083Z,1023.73
2019-04-20T11:05:33.082Z,1023.78
2019-04-20T11:06:34.445Z,1023.77
2019-04-20T11:07:33.019Z,1023.77
2019-04-20T11:08:33.003Z,1023.75
2019-04-20T11:09:32.979Z,1023.74
2019-04-20T11:10:48.270Z,1023.74
2019-04-20T11:11:34.176Z,1023.69
2019-04-20T11:12:32.918Z,1023.71
2019-04-20T11:13:33.201Z,1023.70
2019-04-20T11:14:36.675Z,1023.66
2019-04-20T11:15:32.825Z,1023.66
2019-04-20T11:16:32.857Z,1023.64
2019-04-20T11:17:33.430Z,1023.64
2019-04-20T11:18:33.461Z,1023.64
2019-04-20T11:19:33.607Z,1023.60
2019-04-20T11:20:33.195Z,1023.63
2019-04-20T11:21:32.680Z,1023.55
2019-04-20T11:22:32.658Z,1023.60
2019-04-20T11:23:34.024Z,1023.62
2019-04-20T11:24:32.612Z,1023.62
2019-04-20T11:25:32.595Z,1023.63
2019-04-20T11:26:35.352Z,1023.60
2019-04-20T11:27:32.545Z,1023.58
2019-04-20T11:28:32.517Z,1023.58
2019-04-20T11:29:33.865Z,1023.57
2019-04-20T11:30:32.482Z,1023.55
2019-04-20T11:31:39.037Z,1023.51
2019-04-20T11:32:33.814Z,1023.49
2019-04-20T11:33:32.401Z,1023.43
2019-04-20T11:34:35.417Z,1023.44
2019-04-20T11:35:37.248Z,1023.47
2019-04-20T11:36:32.989Z,1023.41
2019-04-20T11:37:33.143Z,1023.40
2019-04-20T11:38:33.185Z,1023.47
2019-04-20T11:39:32.867Z,1023.40
2019-04-20T11:40:32.910Z,1023.40
2019-04-20T11:41:34.116Z,1023.40
2019-04-20T11:42:32.219Z,1023.38
2019-04-20T11:43:33.539Z,1023.37
2019-04-20T11:44:33.763Z,1023.41
2019-04-20T11:45:32.973Z,1023.40
2019-04-20T11:46:32.439Z,1023.36
2019-04-20T11:47:33.423Z,1023.36
2019-04-20T11:48:32.080Z,1023.33
2019-04-20T11:49:33.286Z,1023.32
2019-04-20T11:50:32.048Z,1023.32
2019-04-20T11:51:32.022Z,1023.31
2019-04-20T11:52:37.219Z,1023.33
2019-04-20T11:53:32.286Z,1023.38
2019-04-20T11:54:32.453Z,1023.33
2019-04-20T11:55:31.956Z,1023.34
2019-04-20T11:56:38.140Z,1023.30
2019-04-20T11:57:33.364Z,1023.28
2019-04-20T11:58:33.092Z,1023.28
2019-04-20T11:59:32.742Z,1023.28
2019-04-20T12:00:37.084Z,1023.27
2019-04-20T12:01:37.970Z,1023.32
2019-04-20T12:02:37.369Z,1023.33
2019-04-20T12:03:45.932Z,1023.30
2019-04-20T12:04:41.456Z,1023.31
2019-04-20T12:05:38.094Z,1023.33
2019-04-20T12:06:32.781Z,1023.27
2019-04-20T12:07:33.536Z,1023.29
2019-04-20T12:08:32.701Z,1023.30
2019-04-20T12:09:31.675Z,1023.22
2019-04-20T12:10:33.037Z,1023.18
2019-04-20T12:11:41.739Z,1023.20
2019-04-20T12:12:40.059Z,1023.23
2019-04-20T12:13:31.654Z,1023.23
2019-04-20T12:14:32.655Z,1023.23
2019-04-20T12:15:34.531Z,1023.22
2019-04-20T12:16:31.954Z,1023.22
2019-04-20T12:17:31.540Z,1023.17
2019-04-20T12:18:31.752Z,1023.16
2019-04-20T12:19:31.489Z,1023.21
2019-04-20T12:20:32.516Z,1023.23
2019-04-20T12:21:32.674Z,1023.18
2019-04-20T12:22:32.442Z,1023.17
2019-04-20T12:23:31.430Z,1023.15
2019-04-20T12:24:31.406Z,1023.16
2019-04-20T12:25:34.203Z,1023.24